sensor_id;sensor_type;location;lat;lon;timestamp;temperature;humidity
15959;DHT22;8078;47.822;9.402;2023-08-08T12:38:59;18.10;99.90
15959;DHT22;8078;47.822;9.402;2023-08-08T12:42:06;17.70;99.90
15959;DHT22;8078;47.822;9.402;2023-08-08T12:44:32;17.90;99.90
15959;DHT22;8078;47.822;9.402;2023-08-08T12:46:58;17.60;99.90
15959;DHT22;8078;47.822;9.402;2023-08-08T12:49:23;18.20;99.90
15959;DHT22;8078;47.822;9.402;2023-08-08T12:51:50;17.60;99.90
15959;DHT22;8078;47.822;9.402;2023-08-08T12:54:16;18.30;99.90
15959;DHT22;8078;47.822;9.402;2023-08-08T12:56:42;18.20;99.90
15959;DHT22;8078;47.822;9.402;2023-08-08T12:59:08;18.20;99.90
15959;DHT22;8078;47.822;9.402;2023-08-08T13:01:34;18.10;49.70
15959;DHT22;8078;47.822;9.402;2023-08-08T13:03:59;18.00;44.10
15959;DHT22;8078;47.822;9.402;2023-08-08T13:06:25;18.40;54.80
15959;DHT22;8078;47.822;9.402;2023-08-08T13:08:50;18.10;42.70
15959;DHT22;8078;47.822;9.402;2023-08-08T13:11:16;18.80;65.30
15959;DHT22;8078;47.822;9.402;2023-08-08T13:13:46;19.50;81.40
15959;DHT22;8078;47.822;9.402;2023-08-08T13:16:12;19.30;71.90
15959;DHT22;8078;47.822;9.402;2023-08-08T13:18:37;18.90;61.40
15959;DHT22;8078;47.822;9.402;2023-08-08T13:21:04;18.50;51.00
15959;DHT22;8078;47.822;9.402;2023-08-08T13:23:29;18.00;35.20
15959;DHT22;8078;47.822;9.402;2023-08-08T13:25:55;18.60;50.40
15959;DHT22;8078;47.822;9.402;2023-08-08T13:28:21;18.20;39.90
15959;DHT22;8078;47.822;9.402;2023-08-08T13:30:47;17.90;35.20
15959;DHT22;8078;47.822;9.402;2023-08-08T13:33:12;17.90;32.10
15959;DHT22;8078;47.822;9.402;2023-08-08T13:35:38;18.00;32.50
15959;DHT22;8078;47.822;9.402;2023-08-08T13:38:03;17.90;31.20
15959;DHT22;8078;47.822;9.402;2023-08-08T13:40:29;18.10;34.60
15959;DHT22;8078;47.822;9.402;2023-08-08T13:42:55;18.50;43.70
15959;DHT22;8078;47.822;9.402;2023-08-08T13:45:20;18.30;44.20
15959;DHT22;8078;47.822;9.402;2023-08-08T13:47:47;18.50;41.10
15959;DHT22;8078;47.822;9.402;2023-08-08T13:50:16;18.30;36.90
15959;DHT22;8078;47.822;9.402;2023-08-08T13:52:41;18.20;35.10
15959;DHT22;8078;47.822;9.402;2023-08-08T13:55:08;18.10;30.20
15959;DHT22;8078;47.822;9.402;2023-08-08T13:57:34;17.80;23.80
15959;DHT22;8078;47.822;9.402;2023-08-08T14:00:00;17.90;27.70
15959;DHT22;8078;47.822;9.402;2023-08-08T14:02:26;17.70;24.20
15959;DHT22;8078;47.822;9.402;2023-08-08T14:04:51;17.70;23.90
15959;DHT22;8078;47.822;9.402;2023-08-08T14:07:18;18.00;27.40
15959;DHT22;8078;47.822;9.402;2023-08-08T14:09:43;18.10;31.00
15959;DHT22;8078;47.822;9.402;2023-08-08T14:12:09;17.70;21.80
15959;DHT22;8078;47.822;9.402;2023-08-08T14:14:34;17.80;22.20
15959;DHT22;8078;47.822;9.402;2023-08-08T14:17:00;18.50;35.50
15959;DHT22;8078;47.822;9.402;2023-08-08T14:19:25;18.30;28.20
15959;DHT22;8078;47.822;9.402;2023-08-08T14:21:51;17.90;21.90
15959;DHT22;8078;47.822;9.402;2023-08-08T14:24:16;18.40;34.50
15959;DHT22;8078;47.822;9.402;2023-08-08T14:26:42;18.40;35.30
15959;DHT22;8078;47.822;9.402;2023-08-08T14:29:07;18.60;34.80
15959;DHT22;8078;47.822;9.402;2023-08-08T14:31:33;18.80;38.40
15959;DHT22;8078;47.822;9.402;2023-08-08T14:33:59;18.70;33.30
15959;DHT22;8078;47.822;9.402;2023-08-08T14:36:24;18.30;26.10
15959;DHT22;8078;47.822;9.402;2023-08-08T14:38:50;17.90;17.90
15959;DHT22;8078;47.822;9.402;2023-08-08T14:41:15;18.00;24.50
15959;DHT22;8078;47.822;9.402;2023-08-08T14:43:41;17.90;21.00
15959;DHT22;8078;47.822;9.402;2023-08-08T14:46:06;17.70;16.60
15959;DHT22;8078;47.822;9.402;2023-08-08T14:48:32;17.50;12.10
15959;DHT22;8078;47.822;9.402;2023-08-08T14:51:00;18.00;21.20
15959;DHT22;8078;47.822;9.402;2023-08-08T14:53:26;19.10;40.90
15959;DHT22;8078;47.822;9.402;2023-08-08T14:55:52;19.10;54.60
15959;DHT22;8078;47.822;9.402;2023-08-08T14:58:17;19.10;41.90
15959;DHT22;8078;47.822;9.402;2023-08-08T15:00:43;18.70;29.50
15959;DHT22;8078;47.822;9.402;2023-08-08T15:03:08;18.70;31.70
15959;DHT22;8078;47.822;9.402;2023-08-08T15:05:34;19.40;42.00
15959;DHT22;8078;47.822;9.402;2023-08-08T15:07:59;19.10;34.20
15959;DHT22;8078;47.822;9.402;2023-08-08T15:10:25;18.20;20.30
15959;DHT22;8078;47.822;9.402;2023-08-08T15:12:51;17.50;5.10
15959;DHT22;8078;47.822;9.402;2023-08-08T15:15:16;17.50;2.90
15959;DHT22;8078;47.822;9.402;2023-08-08T15:17:43;17.70;8.20
15959;DHT22;8078;47.822;9.402;2023-08-08T15:20:10;18.10;14.70
15959;DHT22;8078;47.822;9.402;2023-08-08T15:22:36;18.50;19.20
15959;DHT22;8078;47.822;9.402;2023-08-08T15:25:02;18.60;23.40
15959;DHT22;8078;47.822;9.402;2023-08-08T15:27:29;18.50;17.50
15959;DHT22;8078;47.822;9.402;2023-08-08T15:29:55;18.80;26.70
15959;DHT22;8078;47.822;9.402;2023-08-08T15:32:20;19.10;34.80
15959;DHT22;8078;47.822;9.402;2023-08-08T15:34:46;19.10;40.40
15959;DHT22;8078;47.822;9.402;2023-08-08T15:37:11;18.90;28.90
15959;DHT22;8078;47.822;9.402;2023-08-08T15:39:37;18.90;29.20
15959;DHT22;8078;47.822;9.402;2023-08-08T15:42:03;19.10;31.90
15959;DHT22;8078;47.822;9.402;2023-08-08T15:44:28;19.10;29.70
15959;DHT22;8078;47.822;9.402;2023-08-08T15:46:54;19.00;42.20
15959;DHT22;8078;47.822;9.402;2023-08-08T15:49:20;18.80;31.80
15959;DHT22;8078;47.822;9.402;2023-08-08T15:51:46;18.80;25.00
15959;DHT22;8078;47.822;9.402;2023-08-08T15:54:11;18.30;11.60
15959;DHT22;8078;47.822;9.402;2023-08-08T15:56:37;18.20;11.10
15959;DHT22;8078;47.822;9.402;2023-08-08T15:59:04;18.50;19.70
15959;DHT22;8078;47.822;9.402;2023-08-08T16:01:30;18.60;17.70
15959;DHT22;8078;47.822;9.402;2023-08-08T16:03:56;18.60;21.70
15959;DHT22;8078;47.822;9.402;2023-08-08T16:06:21;18.50;18.40
15959;DHT22;8078;47.822;9.402;2023-08-08T16:08:49;18.50;20.40
15959;DHT22;8078;47.822;9.402;2023-08-08T16:11:14;18.70;20.80
15959;DHT22;8078;47.822;9.402;2023-08-08T16:13:40;18.80;18.60
15959;DHT22;8078;47.822;9.402;2023-08-08T16:16:05;19.00;19.80
15959;DHT22;8078;47.822;9.402;2023-08-08T16:18:31;18.90;17.50
15959;DHT22;8078;47.822;9.402;2023-08-08T16:20:57;18.60;15.90
15959;DHT22;8078;47.822;9.402;2023-08-08T16:23:22;18.40;1.20
15959;DHT22;8078;47.822;9.402;2023-08-08T16:25:48;18.40;1.00
15959;DHT22;8078;47.822;9.402;2023-08-08T16:28:13;18.40;1.90
15959;DHT22;8078;47.822;9.402;2023-08-08T16:30:39;18.20;1.00
15959;DHT22;8078;47.822;9.402;2023-08-08T16:33:04;18.40;1.00
15959;DHT22;8078;47.822;9.402;2023-08-08T16:35:30;18.70;4.00
15959;DHT22;8078;47.822;9.402;2023-08-08T16:37:55;19.00;9.60
15959;DHT22;8078;47.822;9.402;2023-08-08T16:40:21;19.20;17.10
15959;DHT22;8078;47.822;9.402;2023-08-08T16:42:47;19.00;10.10
15959;DHT22;8078;47.822;9.402;2023-08-08T16:45:13;18.70;2.40
15959;DHT22;8078;47.822;9.402;2023-08-08T16:47:38;18.50;1.00
15959;DHT22;8078;47.822;9.402;2023-08-08T16:50:05;18.40;1.00
15959;DHT22;8078;47.822;9.402;2023-08-08T16:52:31;18.60;1.00
15959;DHT22;8078;47.822;9.402;2023-08-08T16:54:57;18.70;2.30
15959;DHT22;8078;47.822;9.402;2023-08-08T16:57:22;18.50;1.20
15959;DHT22;8078;47.822;9.402;2023-08-08T16:59:48;18.60;1.10
15959;DHT22;8078;47.822;9.402;2023-08-08T17:02:13;18.50;1.00
15959;DHT22;8078;47.822;9.402;2023-08-08T17:04:39;18.50;2.60
15959;DHT22;8078;47.822;9.402;2023-08-08T17:07:04;18.60;2.40
15959;DHT22;8078;47.822;9.402;2023-08-08T17:09:31;18.50;2.80
15959;DHT22;8078;47.822;9.402;2023-08-08T17:11:56;18.60;2.60
15959;DHT22;8078;47.822;9.402;2023-08-08T17:14:22;18.80;5.60
15959;DHT22;8078;47.822;9.402;2023-08-08T17:16:48;18.70;6.90
15959;DHT22;8078;47.822;9.402;2023-08-08T17:19:15;18.80;8.10
15959;DHT22;8078;47.822;9.402;2023-08-08T17:21:41;18.40;1.00
15959;DHT22;8078;47.822;9.402;2023-08-08T17:24:06;18.00;1.00
15959;DHT22;8078;47.822;9.402;2023-08-08T17:26:32;17.80;1.00
15959;DHT22;8078;47.822;9.402;2023-08-08T17:28:57;17.50;1.00
15959;DHT22;8078;47.822;9.402;2023-08-08T17:31:23;17.30;1.00
15959;DHT22;8078;47.822;9.402;2023-08-08T17:33:49;17.10;1.00
15959;DHT22;8078;47.822;9.402;2023-08-08T17:36:14;17.10;1.00
15959;DHT22;8078;47.822;9.402;2023-08-08T17:38:40;17.10;1.00
15959;DHT22;8078;47.822;9.402;2023-08-08T17:41:05;16.90;1.00
15959;DHT22;8078;47.822;9.402;2023-08-08T17:43:31;16.80;1.00
15959;DHT22;8078;47.822;9.402;2023-08-08T17:45:57;16.80;1.00
15959;DHT22;8078;47.822;9.402;2023-08-08T17:48:23;16.70;1.00
15959;DHT22;8078;47.822;9.402;2023-08-08T17:50:48;16.70;1.00
15959;DHT22;8078;47.822;9.402;2023-08-08T17:53:14;16.60;1.00
15959;DHT22;8078;47.822;9.402;2023-08-08T17:55:39;16.50;1.00
15959;DHT22;8078;47.822;9.402;2023-08-08T17:58:05;16.50;1.00
15959;DHT22;8078;47.822;9.402;2023-08-08T18:00:30;16.40;1.00
15959;DHT22;8078;47.822;9.402;2023-08-08T18:02:56;16.40;1.00
15959;DHT22;8078;47.822;9.402;2023-08-08T18:05:23;16.30;1.00
15959;DHT22;8078;47.822;9.402;2023-08-08T18:07:48;16.30;1.00
15959;DHT22;8078;47.822;9.402;2023-08-08T18:10:14;16.30;1.00
15959;DHT22;8078;47.822;9.402;2023-08-08T18:12:41;16.20;1.00
15959;DHT22;8078;47.822;9.402;2023-08-08T18:15:07;16.10;1.00
15959;DHT22;8078;47.822;9.402;2023-08-08T18:17:32;16.10;1.00
15959;DHT22;8078;47.822;9.402;2023-08-08T18:19:58;16.00;1.00
15959;DHT22;8078;47.822;9.402;2023-08-08T18:22:24;16.00;1.00
15959;DHT22;8078;47.822;9.402;2023-08-08T18:24:49;16.00;1.00
15959;DHT22;8078;47.822;9.402;2023-08-08T18:27:15;16.00;1.00
15959;DHT22;8078;47.822;9.402;2023-08-08T18:29:41;15.90;1.00
15959;DHT22;8078;47.822;9.402;2023-08-08T18:32:07;15.90;1.00
15959;DHT22;8078;47.822;9.402;2023-08-08T18:34:34;15.80;1.00
15959;DHT22;8078;47.822;9.402;2023-08-08T18:36:59;15.80;1.00
15959;DHT22;8078;47.822;9.402;2023-08-08T18:39:25;15.80;1.00
15959;DHT22;8078;47.822;9.402;2023-08-08T18:41:50;15.80;1.00
15959;DHT22;8078;47.822;9.402;2023-08-08T18:44:16;15.70;1.00
15959;DHT22;8078;47.822;9.402;2023-08-08T18:46:41;15.70;1.00
15959;DHT22;8078;47.822;9.402;2023-08-08T18:49:10;15.70;1.00
15959;DHT22;8078;47.822;9.402;2023-08-08T18:51:36;15.60;1.00
15959;DHT22;8078;47.822;9.402;2023-08-08T18:54:01;15.60;1.00
15959;DHT22;8078;47.822;9.402;2023-08-08T18:56:30;15.60;1.00
15959;DHT22;8078;47.822;9.402;2023-08-08T18:58:57;15.60;1.00
15959;DHT22;8078;47.822;9.402;2023-08-08T19:01:22;15.50;1.00
15959;DHT22;8078;47.822;9.402;2023-08-08T19:03:48;15.50;1.00
15959;DHT22;8078;47.822;9.402;2023-08-08T19:06:14;15.40;1.00
15959;DHT22;8078;47.822;9.402;2023-08-08T19:08:39;15.50;1.00
15959;DHT22;8078;47.822;9.402;2023-08-08T19:11:05;15.50;1.00
15959;DHT22;8078;47.822;9.402;2023-08-08T19:13:31;15.50;1.00
15959;DHT22;8078;47.822;9.402;2023-08-08T19:15:56;15.50;1.00
15959;DHT22;8078;47.822;9.402;2023-08-08T19:18:22;15.40;1.00
15959;DHT22;8078;47.822;9.402;2023-08-08T19:20:47;15.40;1.00
15959;DHT22;8078;47.822;9.402;2023-08-08T19:23:13;15.40;1.00
15959;DHT22;8078;47.822;9.402;2023-08-08T19:25:40;15.40;1.00
15959;DHT22;8078;47.822;9.402;2023-08-08T19:28:05;15.30;1.00
15959;DHT22;8078;47.822;9.402;2023-08-08T19:30:31;15.30;1.00
15959;DHT22;8078;47.822;9.402;2023-08-08T19:32:56;15.20;1.00
15959;DHT22;8078;47.822;9.402;2023-08-08T19:35:22;15.10;1.00
15959;DHT22;8078;47.822;9.402;2023-08-08T19:37:47;15.00;1.00
15959;DHT22;8078;47.822;9.402;2023-08-08T19:40:13;15.20;1.00
15959;DHT22;8078;47.822;9.402;2023-08-08T19:42:38;15.20;1.00
15959;DHT22;8078;47.822;9.402;2023-08-08T19:45:04;15.10;1.00
15959;DHT22;8078;47.822;9.402;2023-08-08T19:47:31;15.00;1.00
15959;DHT22;8078;47.822;9.402;2023-08-08T19:49:56;15.00;1.00
15959;DHT22;8078;47.822;9.402;2023-08-08T19:52:22;14.90;1.00
15959;DHT22;8078;47.822;9.402;2023-08-08T19:54:48;14.90;1.00
15959;DHT22;8078;47.822;9.402;2023-08-08T19:57:33;15.00;1.00
15959;DHT22;8078;47.822;9.402;2023-08-08T19:59:58;14.90;1.00
15959;DHT22;8078;47.822;9.402;2023-08-08T20:02:42;14.90;1.00
15959;DHT22;8078;47.822;9.402;2023-08-08T20:05:28;14.80;1.00
15959;DHT22;8078;47.822;9.402;2023-08-08T20:08:15;14.80;1.00
15959;DHT22;8078;47.822;9.402;2023-08-08T20:11:00;14.90;1.00
15959;DHT22;8078;47.822;9.402;2023-08-08T20:13:47;14.90;1.00
15959;DHT22;8078;47.822;9.402;2023-08-08T20:16:33;15.00;1.00
15959;DHT22;8078;47.822;9.402;2023-08-08T20:19:19;15.00;1.00
15959;DHT22;8078;47.822;9.402;2023-08-08T20:22:04;15.10;1.00
15959;DHT22;8078;47.822;9.402;2023-08-08T20:24:30;15.00;1.00
15959;DHT22;8078;47.822;9.402;2023-08-08T20:26:55;15.00;1.00
15959;DHT22;8078;47.822;9.402;2023-08-08T20:29:21;15.00;1.00
15959;DHT22;8078;47.822;9.402;2023-08-08T20:31:46;15.00;1.00
15959;DHT22;8078;47.822;9.402;2023-08-08T20:34:12;15.30;1.00
15959;DHT22;8078;47.822;9.402;2023-08-08T20:36:57;15.20;1.00
15959;DHT22;8078;47.822;9.402;2023-08-08T20:39:43;15.20;1.00
15959;DHT22;8078;47.822;9.402;2023-08-08T20:42:31;15.20;1.00
15959;DHT22;8078;47.822;9.402;2023-08-08T20:45:17;15.10;1.00
15959;DHT22;8078;47.822;9.402;2023-08-08T20:48:04;15.00;1.00
15959;DHT22;8078;47.822;9.402;2023-08-08T20:50:50;15.00;1.00
15959;DHT22;8078;47.822;9.402;2023-08-08T20:53:36;15.10;1.00
15959;DHT22;8078;47.822;9.402;2023-08-08T20:56:21;15.00;1.00
15959;DHT22;8078;47.822;9.402;2023-08-08T20:59:07;14.90;1.00
15959;DHT22;8078;47.822;9.402;2023-08-08T21:01:54;15.00;1.00
15959;DHT22;8078;47.822;9.402;2023-08-08T21:04:40;15.00;1.00
15959;DHT22;8078;47.822;9.402;2023-08-08T21:07:26;14.90;1.00
15959;DHT22;8078;47.822;9.402;2023-08-08T21:10:12;14.80;1.00
15959;DHT22;8078;47.822;9.402;2023-08-08T21:12:58;14.70;1.00
15959;DHT22;8078;47.822;9.402;2023-08-08T21:15:43;14.60;1.00
15959;DHT22;8078;47.822;9.402;2023-08-08T21:18:30;14.40;1.00
15959;DHT22;8078;47.822;9.402;2023-08-08T21:21:16;14.30;1.00
15959;DHT22;8078;47.822;9.402;2023-08-08T21:24:02;14.30;1.00
15959;DHT22;8078;47.822;9.402;2023-08-08T21:26:48;14.40;1.00
15959;DHT22;8078;47.822;9.402;2023-08-08T21:29:34;14.50;1.00
15959;DHT22;8078;47.822;9.402;2023-08-08T21:32:20;14.30;1.00
15959;DHT22;8078;47.822;9.402;2023-08-08T21:35:06;14.20;1.00
15959;DHT22;8078;47.822;9.402;2023-08-08T21:37:52;14.10;1.00
15959;DHT22;8078;47.822;9.402;2023-08-08T21:40:38;14.00;1.00
15959;DHT22;8078;47.822;9.402;2023-08-08T21:43:24;14.00;1.00
15959;DHT22;8078;47.822;9.402;2023-08-08T21:46:10;14.10;1.00
15959;DHT22;8078;47.822;9.402;2023-08-08T21:48:58;14.20;1.00
15959;DHT22;8078;47.822;9.402;2023-08-08T21:51:44;14.20;1.00
15959;DHT22;8078;47.822;9.402;2023-08-08T21:54:29;14.20;1.00
15959;DHT22;8078;47.822;9.402;2023-08-08T21:57:15;14.20;1.00
15959;DHT22;8078;47.822;9.402;2023-08-08T22:00:01;14.10;1.00
15959;DHT22;8078;47.822;9.402;2023-08-08T22:02:47;14.00;1.00
15959;DHT22;8078;47.822;9.402;2023-08-08T22:05:33;14.00;1.00
15959;DHT22;8078;47.822;9.402;2023-08-08T22:08:19;14.00;1.00
15959;DHT22;8078;47.822;9.402;2023-08-08T22:11:05;14.00;1.00
15959;DHT22;8078;47.822;9.402;2023-08-08T22:13:51;13.90;1.00
15959;DHT22;8078;47.822;9.402;2023-08-08T22:16:36;13.90;1.00
15959;DHT22;8078;47.822;9.402;2023-08-08T22:19:22;13.90;1.00
15959;DHT22;8078;47.822;9.402;2023-08-08T22:22:08;14.00;1.00
15959;DHT22;8078;47.822;9.402;2023-08-08T22:24:54;14.10;1.00
15959;DHT22;8078;47.822;9.402;2023-08-08T22:27:40;14.20;1.00
15959;DHT22;8078;47.822;9.402;2023-08-08T22:30:28;14.20;1.00
15959;DHT22;8078;47.822;9.402;2023-08-08T22:33:13;14.20;1.00
15959;DHT22;8078;47.822;9.402;2023-08-08T22:35:59;14.20;1.00
15959;DHT22;8078;47.822;9.402;2023-08-08T22:38:45;14.20;1.00
15959;DHT22;8078;47.822;9.402;2023-08-08T22:41:31;14.30;1.00
15959;DHT22;8078;47.822;9.402;2023-08-08T22:44:17;14.20;1.00
15959;DHT22;8078;47.822;9.402;2023-08-08T22:47:03;14.20;1.00
15959;DHT22;8078;47.822;9.402;2023-08-08T22:49:49;14.20;1.00
15959;DHT22;8078;47.822;9.402;2023-08-08T22:52:35;14.10;1.00
15959;DHT22;8078;47.822;9.402;2023-08-08T22:55:21;14.10;1.00
15959;DHT22;8078;47.822;9.402;2023-08-08T22:58:07;14.10;1.00
15959;DHT22;8078;47.822;9.402;2023-08-08T23:00:53;14.10;1.00
15959;DHT22;8078;47.822;9.402;2023-08-08T23:03:39;14.00;1.00
15959;DHT22;8078;47.822;9.402;2023-08-08T23:06:25;14.00;1.00
15959;DHT22;8078;47.822;9.402;2023-08-08T23:09:11;14.10;1.00
15959;DHT22;8078;47.822;9.402;2023-08-08T23:11:57;14.10;1.00
15959;DHT22;8078;47.822;9.402;2023-08-08T23:14:43;14.10;1.00
15959;DHT22;8078;47.822;9.402;2023-08-08T23:17:28;14.10;1.00
15959;DHT22;8078;47.822;9.402;2023-08-08T23:20:15;14.20;1.00
15959;DHT22;8078;47.822;9.402;2023-08-08T23:23:00;14.20;1.00
15959;DHT22;8078;47.822;9.402;2023-08-08T23:25:46;14.20;1.00
15959;DHT22;8078;47.822;9.402;2023-08-08T23:28:32;14.20;1.00
15959;DHT22;8078;47.822;9.402;2023-08-08T23:31:18;14.20;1.00
15959;DHT22;8078;47.822;9.402;2023-08-08T23:34:05;14.30;1.00
15959;DHT22;8078;47.822;9.402;2023-08-08T23:36:51;14.30;1.00
15959;DHT22;8078;47.822;9.402;2023-08-08T23:39:37;14.30;1.00
15959;DHT22;8078;47.822;9.402;2023-08-08T23:42:23;14.30;1.00
15959;DHT22;8078;47.822;9.402;2023-08-08T23:45:09;14.20;1.00
15959;DHT22;8078;47.822;9.402;2023-08-08T23:47:57;14.30;1.00
15959;DHT22;8078;47.822;9.402;2023-08-08T23:50:44;14.20;1.00
15959;DHT22;8078;47.822;9.402;2023-08-08T23:53:30;14.20;1.00
15959;DHT22;8078;47.822;9.402;2023-08-08T23:56:16;14.20;1.00
15959;DHT22;8078;47.822;9.402;2023-08-08T23:59:02;14.20;1.00
